Time;durP1;ratioP1;P1;durP2;ratioP2;P2;SDS_P1;SDS_P2;PMS_P1;PMS_P2;Temp;Humidity;BMP_temperature;BMP_pressure;BME280_temperature;BME280_humidity;BME280_pressure;Samples;Min_cycle;Max_cycle;Signal;HPM_P1;HPM_P2
2022/03/24 00:01:22;;;;;;;25.02;14.43;;;;;;;-139.48;100.00;61774.03;5015116;28;20104;-71
2022/03/24 00:04:06;;;;;;;21.05;12.57;;;;;;;-139.48;100.00;61774.03;5015374;28;20109;-72
2022/03/24 00:06:50;;;;;;;23.67;13.23;;;;;;;-139.48;100.00;61774.03;5014379;28;20107;-71
2022/03/24 00:09:34;;;;;;;23.00;13.50;;;;;;;-139.48;100.00;61774.03;5000278;28;20045;-72
2022/03/24 00:12:18;;;;;;;24.42;13.32;;;;;;;-139.48;100.00;61774.03;5013996;28;20044;-72
2022/03/24 00:15:03;;;;;;;20.10;12.68;;;;;;;-139.48;100.00;61774.03;5014284;28;20084;-72
2022/03/24 00:17:47;;;;;;;23.63;13.23;;;;;;;-139.48;100.00;61774.03;5014071;28;20465;-72
2022/03/24 00:20:32;;;;;;;23.17;13.68;;;;;;;-139.48;100.00;61774.03;5014751;28;20406;-72
2022/03/24 00:23:16;;;;;;;21.20;13.10;;;;;;;-139.48;100.00;61774.03;5013776;28;20049;-72
2022/03/24 00:26:01;;;;;;;22.17;13.57;;;;;;;-139.48;100.00;61774.03;5014850;28;20414;-72
2022/03/24 00:28:45;;;;;;;24.35;13.35;;;;;;;-139.48;100.00;61774.03;5000096;28;20112;-72
2022/03/24 00:31:30;;;;;;;24.92;13.35;;;;;;;-139.48;100.00;61774.03;5013545;28;20108;-71
2022/03/24 00:34:14;;;;;;;24.52;13.90;;;;;;;-139.48;100.00;61774.03;5014075;28;20104;-72
2022/03/24 00:36:58;;;;;;;29.88;18.40;;;;;;;-139.48;100.00;61774.03;5014768;28;20053;-72
2022/03/24 00:39:43;;;;;;;27.40;15.68;;;;;;;-139.48;100.00;61774.03;5014704;28;20049;-72
2022/03/24 00:42:27;;;;;;;25.52;15.52;;;;;;;-139.48;100.00;61774.03;5013726;28;20084;-72
2022/03/24 00:45:12;;;;;;;28.20;16.30;;;;;;;-139.48;100.00;61774.03;5013353;28;20513;-72
2022/03/24 00:47:56;;;;;;;25.88;15.38;;;;;;;-139.48;100.00;61774.03;5014541;28;20124;-72
2022/03/24 00:50:40;;;;;;;23.48;14.57;;;;;;;-139.48;100.00;61774.03;5013565;28;20068;-72
2022/03/24 00:53:24;;;;;;;27.73;15.75;;;;;;;-139.48;100.00;61774.03;5014405;28;20103;-72
2022/03/24 00:56:09;;;;;;;26.48;16.38;;;;;;;-139.48;100.00;61774.03;5014435;28;20054;-72
2022/03/24 00:58:53;;;;;;;24.58;15.55;;;;;;;-139.48;100.00;61774.03;5013410;28;20049;-72
2022/03/24 01:01:39;;;;;;;28.27;17.45;;;;;;;-139.48;100.00;61774.03;5014229;28;20079;-72
2022/03/24 01:04:23;;;;;;;31.08;17.77;;;;;;;-139.48;100.00;61774.03;5013334;28;20096;-72
2022/03/24 01:07:07;;;;;;;28.17;16.42;;;;;;;-139.48;100.00;61774.03;5013200;28;20045;-71
2022/03/24 01:09:51;;;;;;;27.60;15.93;;;;;;;-139.48;100.00;61774.03;4999367;28;20080;-72
2022/03/24 01:12:36;;;;;;;30.98;16.65;;;;;;;-139.48;100.00;61774.03;5012727;28;20177;-72
2022/03/24 01:15:23;;;;;;;26.98;16.92;;;;;;;-139.48;100.00;61774.03;5013155;28;20052;-72
2022/03/24 01:18:07;;;;;;;27.08;16.40;;;;;;;-139.48;100.00;61774.03;5014314;28;20048;-72
2022/03/24 01:20:51;;;;;;;31.17;17.15;;;;;;;-139.48;100.00;61774.03;5013957;28;20103;-72
2022/03/24 01:23:35;;;;;;;36.20;18.92;;;;;;;-139.48;100.00;61774.03;5012964;28;20165;-72
2022/03/24 01:26:19;;;;;;;28.95;17.13;;;;;;;-139.48;100.00;61774.03;5014028;28;20108;-72
2022/03/24 01:29:03;;;;;;;29.92;17.20;;;;;;;-139.48;100.00;61774.03;5012965;28;20049;-72
2022/03/24 01:31:47;;;;;;;33.50;17.92;;;;;;;-139.48;100.00;61774.03;5012993;28;20421;-72
2022/03/24 01:34:31;;;;;;;32.13;17.77;;;;;;;-139.48;100.00;61774.03;5013615;28;20530;-72
2022/03/24 01:37:15;;;;;;;32.97;18.13;;;;;;;-139.48;100.00;61774.03;5012891;28;20048;-72
2022/03/24 01:39:59;;;;;;;31.95;16.88;;;;;;;-139.48;100.00;61774.03;5013813;28;20048;-72
2022/03/24 01:42:43;;;;;;;33.25;17.52;;;;;;;-139.48;100.00;61774.03;5012463;28;20129;-72
2022/03/24 01:45:27;;;;;;;34.03;18.15;;;;;;;-139.48;100.00;61774.03;5013738;28;20111;-72
2022/03/24 01:48:11;;;;;;;32.83;18.48;;;;;;;-139.48;100.00;61774.03;5012590;28;20057;-72
2022/03/24 01:50:56;;;;;;;31.95;17.83;;;;;;;-139.48;100.00;61774.03;4999043;28;20512;-72
2022/03/24 01:53:40;;;;;;;32.03;17.15;;;;;;;-139.48;100.00;61774.03;5013659;28;20045;-72
2022/03/24 01:56:24;;;;;;;29.60;17.60;;;;;;;-139.48;100.00;61774.03;5012375;28;20045;-72
2022/03/24 01:59:08;;;;;;;31.88;17.27;;;;;;;-139.48;100.00;61774.03;5012635;28;20057;-71
2022/03/24 02:01:53;;;;;;;31.35;17.75;;;;;;;-139.48;100.00;61774.03;4998520;28;20092;-71
2022/03/24 02:04:37;;;;;;;32.97;16.63;;;;;;;-139.48;100.00;61774.03;5013376;28;20417;-71
2022/03/24 02:07:21;;;;;;;33.22;16.40;;;;;;;-139.48;100.00;61774.03;5012602;28;20057;-71
2022/03/24 02:10:09;;;;;;;29.80;16.00;;;;;;;-139.48;100.00;61774.03;5013506;28;20137;-71
2022/03/24 02:12:54;;;;;;;28.42;15.95;;;;;;;-139.48;100.00;61774.03;4998427;28;20100;-72
2022/03/24 02:15:39;;;;;;;32.78;17.90;;;;;;;-139.48;100.00;61774.03;5012203;28;20406;-71
2022/03/24 02:18:22;;;;;;;27.42;17.17;;;;;;;-139.48;100.00;61774.03;5014802;28;20107;-72
2022/03/24 02:21:08;;;;;;;26.95;16.05;;;;;;;-139.48;100.00;61774.03;5016226;28;20053;-72
2022/03/24 02:23:51;;;;;;;27.52;16.55;;;;;;;-139.48;100.00;61774.03;5016932;28;20394;-72
2022/03/24 02:26:36;;;;;;;;;;;;;;;-139.48;100.00;61774.03;5017660;28;20129;-72
2022/03/24 02:29:25;;;;;;;29.85;16.63;;;;;;;-139.48;100.00;61774.03;5016167;28;19959;-71
2022/03/24 02:32:11;;;;;;;37.75;17.27;;;;;;;-139.48;100.00;61774.03;5016074;28;20068;-71
2022/03/24 02:34:55;;;;;;;28.58;17.17;;;;;;;-139.48;100.00;61774.03;5002294;28;20056;-71
2022/03/24 02:37:40;;;;;;;31.80;17.45;;;;;;;-139.48;100.00;61774.03;5016004;28;20100;-72
2022/03/24 02:40:24;;;;;;;27.38;16.73;;;;;;;-139.48;100.00;61774.03;5016942;28;20065;-71
2022/03/24 02:43:09;;;;;;;32.90;17.25;;;;;;;-139.48;100.00;61774.03;5015470;28;20124;-71
2022/03/24 02:45:54;;;;;;;29.15;17.05;;;;;;;-139.48;100.00;61774.03;5016780;28;20168;-72
2022/03/24 02:48:37;;;;;;;28.60;18.13;;;;;;;-139.48;100.00;61774.03;5016508;28;20463;-71
2022/03/24 02:51:21;;;;;;;27.67;16.90;;;;;;;-139.48;100.00;61774.03;5015881;28;20100;-71
2022/03/24 02:54:06;;;;;;;27.30;16.98;;;;;;;-139.48;100.00;61774.03;5015474;28;20096;-71
2022/03/24 02:56:50;;;;;;;25.45;14.95;;;;;;;-139.48;100.00;61774.03;5015987;28;20095;-71
2022/03/24 02:59:34;;;;;;;27.70;15.82;;;;;;;-139.48;100.00;61774.03;5016352;28;20057;-71
2022/03/24 03:02:18;;;;;;;24.58;15.15;;;;;;;-139.48;100.00;61774.03;5015207;28;20049;-71
2022/03/24 03:05:03;;;;;;;27.27;16.48;;;;;;;-139.48;100.00;61774.03;5016284;28;20056;-71
2022/03/24 03:07:47;;;;;;;28.63;15.70;;;;;;;-139.48;100.00;61774.03;5016481;28;20103;-71
2022/03/24 03:10:31;;;;;;;27.40;16.25;;;;;;;-139.48;100.00;61774.03;5016268;28;20464;-71
2022/03/24 03:13:15;;;;;;;28.77;16.30;;;;;;;-139.48;100.00;61774.03;5016660;28;20404;-70
2022/03/24 03:15:59;;;;;;;26.92;15.70;;;;;;;-139.48;100.00;61774.03;5015363;28;20056;-70
2022/03/24 03:18:43;;;;;;;28.17;15.40;;;;;;;-139.48;100.00;61774.03;5016007;28;20056;-71
2022/03/24 03:21:27;;;;;;;27.92;15.15;;;;;;;-139.48;100.00;61774.03;5015821;28;20100;-70
2022/03/24 03:24:11;;;;;;;24.85;15.45;;;;;;;-139.48;100.00;61774.03;5015552;28;20103;-70
2022/03/24 03:26:55;;;;;;;27.98;16.13;;;;;;;-139.48;100.00;61774.03;5015134;28;20157;-70
2022/03/24 03:29:40;;;;;;;29.25;16.65;;;;;;;-139.48;100.00;61774.03;5015028;28;20181;-70
2022/03/24 03:32:24;;;;;;;32.45;17.80;;;;;;;-139.48;100.00;61774.03;5015760;28;20414;-70
2022/03/24 03:35:08;;;;;;;31.85;17.35;;;;;;;-139.48;100.00;61774.03;5015938;28;20136;-70
2022/03/24 03:37:52;;;;;;;30.00;15.45;;;;;;;-139.48;100.00;61774.03;5015183;28;20045;-70
2022/03/24 03:40:36;;;;;;;30.48;17.40;;;;;;;-139.48;100.00;61774.03;5015874;28;20048;-70
2022/03/24 03:43:21;;;;;;;29.55;16.45;;;;;;;-139.48;100.00;61774.03;5014448;28;20540;-70
2022/03/24 03:46:08;;;;;;;25.23;15.85;;;;;;;-139.48;100.00;61774.03;5015770;28;20052;-70
2022/03/24 03:48:52;;;;;;;31.30;17.40;;;;;;;-139.48;100.00;61774.03;5014418;28;20048;-70
2022/03/24 03:51:37;;;;;;;28.25;16.35;;;;;;;-139.48;100.00;61774.03;5014312;28;20093;-70
2022/03/24 03:54:21;;;;;;;29.50;15.90;;;;;;;-139.48;100.00;61774.03;5015285;28;20125;-70
2022/03/24 03:57:05;;;;;;;29.58;16.67;;;;;;;-139.48;100.00;61774.03;5015761;28;20104;-70
2022/03/24 03:59:52;;;;;;;31.30;17.52;;;;;;;-139.48;100.00;61774.03;5014471;28;20456;-71
2022/03/24 04:02:36;;;;;;;32.45;17.00;;;;;;;-139.48;100.00;61774.03;5014951;28;20049;-70
2022/03/24 04:05:25;;;;;;;26.17;15.63;;;;;;;-139.48;100.00;61774.03;5014419;28;20048;-70
2022/03/24 04:08:12;;;;;;;28.25;16.33;;;;;;;-139.48;100.00;61774.03;5015307;28;20137;-70
2022/03/24 04:10:57;;;;;;;30.58;18.05;;;;;;;-139.48;100.00;61774.03;5013781;28;20133;-70
2022/03/24 04:13:42;;;;;;;25.38;15.55;;;;;;;-139.48;100.00;61774.03;5014486;28;20049;-70
2022/03/24 04:16:26;;;;;;;28.67;16.50;;;;;;;-139.48;100.00;61774.03;5015135;28;20060;-70
2022/03/24 04:19:10;;;;;;;28.67;17.08;;;;;;;-139.48;100.00;61774.03;5014863;28;20056;-70
2022/03/24 04:21:54;;;;;;;26.30;16.58;;;;;;;-139.48;100.00;61774.03;5014824;28;20092;-70
2022/03/24 04:24:38;;;;;;;31.75;16.90;;;;;;;-139.48;100.00;61774.03;5014042;28;20060;-70
2022/03/24 04:27:22;;;;;;;35.67;17.35;;;;;;;-139.48;100.00;61774.03;5013906;28;20076;-70
2022/03/24 04:30:07;;;;;;;30.38;15.48;;;;;;;-139.48;100.00;61774.03;5013712;28;20061;-70
2022/03/24 04:32:51;;;;;;;27.38;16.83;;;;;;;-139.48;100.00;61774.03;5014498;28;20164;-70
2022/03/24 04:35:35;;;;;;;30.75;15.82;;;;;;;-139.48;100.00;61774.03;5013647;28;20107;-70
2022/03/24 04:38:19;;;;;;;26.20;15.23;;;;;;;-139.48;100.00;61774.03;5013549;28;20104;-70
2022/03/24 04:41:04;;;;;;;29.35;16.45;;;;;;;-139.48;100.00;61774.03;5013238;28;20100;-70
2022/03/24 04:43:48;;;;;;;28.92;16.55;;;;;;;-139.48;100.00;61774.03;5013660;28;20119;-70
2022/03/24 04:46:32;;;;;;;30.02;17.13;;;;;;;-139.48;100.00;61774.03;5000012;28;20044;-70
2022/03/24 04:49:16;;;;;;;36.10;17.23;;;;;;;-139.48;100.00;61774.03;5014576;28;20108;-70
2022/03/24 04:52:03;;;;;;;28.73;17.50;;;;;;;-139.48;100.00;61774.03;5014392;28;20123;-70
2022/03/24 04:54:47;;;;;;;28.27;16.58;;;;;;;-139.48;100.00;61774.03;5014640;28;20139;-69
2022/03/24 04:57:31;;;;;;;28.17;16.95;;;;;;;-139.48;100.00;61774.03;5013720;28;20103;-69
2022/03/24 05:00:18;;;;;;;30.00;16.55;;;;;;;-139.48;100.00;61774.03;5014403;28;20052;-69
2022/03/24 05:03:02;;;;;;;30.05;16.70;;;;;;;-139.48;100.00;61774.03;5013005;28;20409;-69
2022/03/24 05:05:46;;;;;;;34.22;18.60;;;;;;;-139.48;100.00;61774.03;5013370;28;20053;-69
2022/03/24 05:08:29;;;;;;;30.40;17.73;;;;;;;-139.48;100.00;61774.03;5013301;28;20425;-69
2022/03/24 05:11:13;;;;;;;31.60;17.17;;;;;;;-139.48;100.00;61774.03;5013798;28;20045;-70
2022/03/24 05:13:57;;;;;;;31.83;17.55;;;;;;;-139.48;100.00;61774.03;5012921;28;20458;-69
2022/03/24 05:16:41;;;;;;;31.23;18.30;;;;;;;-139.48;100.00;61774.03;5013878;28;20044;-69
2022/03/24 05:19:26;;;;;;;32.83;17.48;;;;;;;-139.48;100.00;61774.03;5013040;28;20099;-69
2022/03/24 05:22:10;;;;;;;30.70;17.15;;;;;;;-139.48;100.00;61774.03;5013025;28;20125;-70
2022/03/24 05:24:54;;;;;;;28.90;17.38;;;;;;;-139.48;100.00;61774.03;4999193;28;20505;-70
2022/03/24 05:27:38;;;;;;;32.47;16.40;;;;;;;-139.48;100.00;61774.03;5014004;28;20048;-69
2022/03/24 05:30:22;;;;;;;34.70;18.70;;;;;;;-139.48;100.00;61774.03;5012980;28;20049;-69
2022/03/24 05:33:06;;;;;;;31.45;17.67;;;;;;;-139.48;100.00;61774.03;4998756;28;20531;-69
2022/03/24 05:35:49;;;;;;;29.58;16.75;;;;;;;-139.48;100.00;61774.03;4999056;28;20517;-69
2022/03/24 05:38:33;;;;;;;31.48;16.15;;;;;;;-139.48;100.00;61774.03;5013581;28;20049;-69
2022/03/24 05:41:18;;;;;;;27.25;15.93;;;;;;;-139.48;100.00;61774.03;5012745;28;20049;-69
2022/03/24 05:44:02;;;;;;;33.65;17.70;;;;;;;-139.48;100.00;61774.03;5012837;28;20045;-69
2022/03/24 05:46:47;;;;;;;34.20;17.73;;;;;;;-139.48;100.00;61774.03;5012714;28;20056;-69
2022/03/24 05:49:30;;;;;;;33.15;17.50;;;;;;;-139.48;100.00;61774.03;5012795;28;20049;-69
2022/03/24 05:52:14;;;;;;;30.77;18.25;;;;;;;-139.48;100.00;61774.03;5012773;28;20141;-69
2022/03/24 05:54:58;;;;;;;37.45;19.13;;;;;;;-139.48;100.00;61774.03;5017533;28;20548;-69
2022/03/24 05:57:44;;;;;;;30.02;17.60;;;;;;;-139.48;100.00;61774.03;5016542;28;20049;-69
2022/03/24 06:00:28;;;;;;;30.55;17.40;;;;;;;-139.48;100.00;61774.03;5016752;28;20096;-69
2022/03/24 06:03:15;;;;;;;;;;;;;;;-139.48;100.00;61774.03;5017108;28;20105;-69
2022/03/24 06:05:59;;;;;;;32.15;16.88;;;;;;;-139.48;100.00;61774.03;5017312;28;19925;-69
2022/03/24 06:08:43;;;;;;;32.72;18.08;;;;;;;-139.48;100.00;61774.03;5016589;28;20056;-69
2022/03/24 06:11:27;;;;;;;33.47;19.02;;;;;;;-139.48;100.00;61774.03;5002277;28;20151;-70
2022/03/24 06:14:12;;;;;;;31.92;17.50;;;;;;;-139.48;100.00;61774.03;5002449;28;20135;-69
2022/03/24 06:16:56;;;;;;;32.65;17.98;;;;;;;-139.48;100.00;61774.03;5017109;28;20129;-69
2022/03/24 06:19:40;;;;;;;30.83;17.27;;;;;;;-139.48;100.00;61774.03;5017320;28;20080;-69
2022/03/24 06:22:24;;;;;;;34.45;18.88;;;;;;;-139.48;100.00;61774.03;5016956;28;20052;-71
2022/03/24 06:25:08;;;;;;;37.30;18.35;;;;;;;-139.48;100.00;61774.03;5016215;28;20571;-69
2022/03/24 06:27:53;;;;;;;32.90;17.67;;;;;;;-139.48;100.00;61774.03;5017429;28;20049;-72
2022/03/24 06:30:37;;;;;;;33.35;17.73;;;;;;;-139.48;100.00;61774.03;5016124;28;20056;-71
2022/03/24 06:33:21;;;;;;;29.80;17.08;;;;;;;-139.48;100.00;61774.03;5016196;28;20404;-71
2022/03/24 06:36:05;;;;;;;;;;;;;;;-139.48;100.00;61774.03;5016519;28;20405;-70
2022/03/24 06:38:49;;;;;;;27.75;16.60;;;;;;;-139.48;100.00;61774.03;5016973;28;20044;-71
2022/03/24 06:41:33;;;;;;;31.10;18.60;;;;;;;-139.48;100.00;61774.03;5015567;28;20045;-71
2022/03/24 06:44:18;;;;;;;34.13;16.92;;;;;;;-139.48;100.00;61774.03;5015924;28;20099;-70
2022/03/24 06:47:02;;;;;;;32.53;17.60;;;;;;;-139.48;100.00;61774.03;5002065;28;20563;-71
2022/03/24 06:49:46;;;;;;;29.55;17.95;;;;;;;-139.48;100.00;61774.03;5015765;28;20129;-71
2022/03/24 06:52:31;;;;;;;33.55;17.83;;;;;;;-139.48;100.00;61774.03;5015733;28;20526;-71
2022/03/24 06:55:15;;;;;;;33.55;17.60;;;;;;;-139.48;100.00;61774.03;5016437;28;20513;-71
2022/03/24 06:57:59;;;;;;;33.63;18.55;;;;;;;-139.48;100.00;61774.03;5016726;28;20133;-69
2022/03/24 07:00:43;;;;;;;46.97;24.83;;;;;;;-139.48;100.00;61774.03;5015696;28;20482;-69
2022/03/24 07:03:27;;;;;;;62.53;30.55;;;;;;;-139.48;100.00;61774.03;5001232;28;20472;-69
2022/03/24 07:06:11;;;;;;;40.00;22.35;;;;;;;-139.48;100.00;61774.03;5001648;28;20433;-71
2022/03/24 07:08:55;;;;;;;37.45;20.75;;;;;;;-139.48;100.00;61774.03;5015278;28;20470;-71
2022/03/24 07:11:39;;;;;;;36.22;20.67;;;;;;;-139.48;100.00;61774.03;5014945;28;20057;-71
2022/03/24 07:14:23;;;;;;;35.95;20.50;;;;;;;-139.48;100.00;61774.03;5015092;28;20529;-71
2022/03/24 07:17:08;;;;;;;34.35;20.75;;;;;;;-139.48;100.00;61774.03;5015218;28;20084;-71
2022/03/24 07:19:51;;;;;;;33.80;19.13;;;;;;;-139.48;100.00;61774.03;5015508;28;20100;-71
2022/03/24 07:22:36;;;;;;;34.67;20.27;;;;;;;-139.48;100.00;61774.03;5014828;28;20064;-71
2022/03/24 07:25:21;;;;;;;45.58;20.48;;;;;;;-139.48;100.00;61774.03;5015158;28;20064;-71
2022/03/24 07:28:06;;;;;;;37.03;20.00;;;;;;;-139.48;100.00;61774.03;5014863;28;20057;-71
2022/03/24 07:30:50;;;;;;;36.80;21.10;;;;;;;-139.48;100.00;61774.03;5015709;28;20095;-71
2022/03/24 07:33:34;;;;;;;38.85;20.92;;;;;;;-139.48;100.00;61774.03;5015016;28;20053;-71
2022/03/24 07:36:22;;;;;;;35.35;20.83;;;;;;;-139.48;100.00;61774.03;5014736;28;20048;-71
2022/03/24 07:39:06;;;;;;;35.03;19.77;;;;;;;-139.48;100.00;61774.03;5015586;28;20449;-71
2022/03/24 07:41:50;;;;;;;30.45;19.63;;;;;;;-139.48;100.00;61774.03;5014954;28;20056;-71
2022/03/24 07:44:34;;;;;;;32.80;20.40;;;;;;;-139.48;100.00;61774.03;5015509;28;20080;-72
2022/03/24 07:47:17;;;;;;;30.50;18.67;;;;;;;-139.48;100.00;61774.03;5015452;28;20080;-71
2022/03/24 07:50:02;;;;;;;35.55;19.95;;;;;;;-139.48;100.00;61774.03;5014715;28;20044;-71
2022/03/24 07:52:46;;;;;;;33.90;20.05;;;;;;;-139.48;100.00;61774.03;5014325;28;20072;-71
2022/03/24 07:55:31;;;;;;;34.38;18.95;;;;;;;-139.48;100.00;61774.03;5014606;28;20049;-71
2022/03/24 07:58:17;;;;;;;37.67;20.05;;;;;;;-139.48;100.00;61774.03;5014748;28;20512;-72
2022/03/24 08:01:01;;;;;;;32.55;19.02;;;;;;;-139.48;100.00;61774.03;5014376;28;20072;-71
2022/03/24 08:03:45;;;;;;;38.60;20.70;;;;;;;-139.48;100.00;61774.03;5014401;28;20548;-71
2022/03/24 08:06:30;;;;;;;38.13;20.00;;;;;;;-139.48;100.00;61774.03;5000535;28;20509;-71
2022/03/24 08:09:15;;;;;;;38.05;20.48;;;;;;;-139.48;100.00;61774.03;5014303;28;20135;-72
2022/03/24 08:11:59;;;;;;;34.08;20.15;;;;;;;-139.48;100.00;61774.03;5013836;28;20052;-72
2022/03/24 08:14:44;;;;;;;33.05;19.05;;;;;;;-139.48;100.00;61774.03;5014479;28;20171;-71
2022/03/24 08:17:28;;;;;;;33.15;18.13;;;;;;;-139.48;100.00;61774.03;5014460;28;20079;-71
2022/03/24 08:20:12;;;;;;;35.38;20.67;;;;;;;-139.48;100.00;61774.03;5014964;28;20089;-69
2022/03/24 08:22:56;;;;;;;39.80;20.40;;;;;;;-139.48;100.00;61774.03;5013705;28;20078;-71
2022/03/24 08:25:42;;;;;;;37.55;21.20;;;;;;;-139.48;100.00;61774.03;5015275;28;20452;-71
2022/03/24 08:28:26;;;;;;;36.13;21.08;;;;;;;-139.48;100.00;61774.03;5000005;28;20155;-71
2022/03/24 08:31:10;;;;;;;42.03;21.92;;;;;;;-139.48;100.00;61774.03;5014069;28;20135;-71
2022/03/24 08:33:54;;;;;;;43.60;24.77;;;;;;;-139.48;100.00;61774.03;5014889;28;20095;-71
2022/03/24 08:36:39;;;;;;;38.45;20.70;;;;;;;-139.48;100.00;61774.03;4999865;28;20049;-72
2022/03/24 08:39:22;;;;;;;34.70;20.58;;;;;;;-139.48;100.00;61774.03;5013834;28;20065;-71
2022/03/24 08:42:06;;;;;;;32.83;19.40;;;;;;;-139.48;100.00;61774.03;5013515;28;20128;-71
2022/03/24 08:44:50;;;;;;;39.38;21.92;;;;;;;-139.48;100.00;61774.03;5013661;28;20096;-71
2022/03/24 08:47:34;;;;;;;36.63;19.52;;;;;;;-139.48;100.00;61774.03;5014659;28;20184;-71
2022/03/24 08:50:18;;;;;;;51.33;27.52;;;;;;;-139.48;100.00;61774.03;5013518;28;20095;-70
2022/03/24 08:53:04;;;;;;;39.50;20.25;;;;;;;-139.48;100.00;61774.03;5013470;28;20100;-71
2022/03/24 08:55:48;;;;;;;43.63;23.35;;;;;;;-139.48;100.00;61774.03;5013235;28;20096;-71
2022/03/24 08:58:32;;;;;;;47.15;24.90;;;;;;;-139.48;100.00;61774.03;5014424;28;20072;-71
2022/03/24 09:01:19;;;;;;;41.88;24.88;;;;;;;-139.48;100.00;61774.03;5013336;28;20116;-71
2022/03/24 09:04:03;;;;;;;57.13;29.17;;;;;;;-139.48;100.00;61774.03;5013450;28;20092;-71
2022/03/24 09:06:48;;;;;;;34.38;20.58;;;;;;;-139.48;100.00;61774.03;5013180;28;20061;-71
2022/03/24 09:09:33;;;;;;;37.95;20.65;;;;;;;-139.48;100.00;61774.03;5014186;28;20072;-72
2022/03/24 09:12:18;;;;;;;38.25;20.45;;;;;;;-139.48;100.00;61774.03;5014212;28;20048;-71
2022/03/24 09:15:05;;;;;;;40.45;22.15;;;;;;;-139.48;100.00;61774.03;5012926;28;20061;-71
2022/03/24 09:17:49;;;;;;;34.78;21.30;;;;;;;-139.48;100.00;61774.03;5013842;28;20080;-71
2022/03/24 09:20:33;;;;;;;34.88;22.20;;;;;;;-139.48;100.00;61774.03;5013844;28;20053;-71
2022/03/24 09:23:18;;;;;;;35.83;19.77;;;;;;;-139.48;100.00;61774.03;5013786;28;20104;-71
2022/03/24 09:26:02;;;;;;;39.53;21.92;;;;;;;-139.48;100.00;61774.03;5012883;28;20060;-71
2022/03/24 09:28:51;;;;;;;36.85;19.95;;;;;;;-139.48;100.00;61774.03;5013952;28;20474;-72
2022/03/24 09:31:35;;;;;;;33.05;20.95;;;;;;;-139.48;100.00;61774.03;5012935;28;20133;-71
2022/03/24 09:34:19;;;;;;;32.30;20.08;;;;;;;-139.48;100.00;61774.03;5013896;28;20137;-69
2022/03/24 09:37:03;;;;;;;36.95;20.80;;;;;;;-139.48;100.00;61774.03;5012887;28;20052;-71
2022/03/24 09:39:47;;;;;;;36.80;20.88;;;;;;;-139.48;100.00;61774.03;5012565;28;20060;-71
2022/03/24 09:42:31;;;;;;;35.80;21.77;;;;;;;-139.48;100.00;61774.03;5012612;28;20050;-71
2022/03/24 09:45:15;;;;;;;36.25;21.35;;;;;;;19.01;34.04;101761.84;5013770;28;20099;-71
2022/03/24 09:48:00;;;;;;;35.33;22.17;;;;;;;19.81;34.43;101672.81;5013377;28;20104;-71
2022/03/24 09:50:47;;;;;;;33.22;21.15;;;;;;;19.81;34.43;101672.81;4998803;28;20147;-68
2022/03/24 09:53:31;;;;;;;26.15;20.13;;;;;;;23.95;29.99;101667.47;5012118;28;20065;-69
2022/03/24 09:56:15;;;;;;;;;;;;;;;24.79;27.05;101659.06;5013382;28;20049;-69
2022/03/24 09:58:59;;;;;;;40.78;23.23;;;;;;;26.95;24.88;101659.78;5012674;28;20022;-69
2022/03/24 10:01:43;;;;;;;35.45;24.60;;;;;;;28.16;23.16;101655.63;4998439;28;20089;-69
2022/03/24 10:04:26;;;;;;;;;;;;;;;26.33;24.66;101645.03;5014273;28;20057;-69
2022/03/24 10:07:11;;;;;;;36.13;24.55;;;;;;;25.35;25.83;101646.88;5012385;28;19921;-69
2022/03/24 10:09:56;;;;;;;37.75;25.77;;;;;;;24.01;26.91;101661.25;5012355;28;20457;-69
2022/03/24 10:12:40;;;;;;;36.95;25.30;;;;;;;27.53;23.59;101648.50;5012978;28;20093;-70
2022/03/24 10:15:24;;;;;;;34.17;25.20;;;;;;;29.31;21.68;101639.94;5012663;28;20556;-69
2022/03/24 10:18:15;;;;;;;36.55;25.55;;;;;;;29.18;21.61;101634.59;5013211;28;20100;-69
2022/03/24 10:21:00;;;;;;;30.80;25.45;;;;;;;27.94;23.29;101645.28;5012347;28;20049;-69
2022/03/24 10:23:44;;;;;;;36.92;26.08;;;;;;;28.52;22.78;101633.75;4998225;28;20417;-69
2022/03/24 10:26:50;;;;;;;38.33;26.05;;;;;;;28.63;21.68;101637.66;5012156;28;20048;-69
2022/03/24 10:29:35;;;;;;;37.30;26.23;;;;;;;27.32;22.47;101634.34;5012372;28;20068;-69
2022/03/24 10:32:19;;;;;;;33.80;25.67;;;;;;;27.54;23.33;101639.22;5012954;28;20048;-69
2022/03/24 10:35:11;;;;;;;37.67;26.20;;;;;;;29.46;20.29;101628.50;5013219;28;20095;-70
2022/03/24 10:37:55;;;;;;;32.28;25.52;;;;;;;31.61;19.32;101623.19;5012562;28;20057;-70
2022/03/24 10:40:39;;;;;;;33.63;25.48;;;;;;;32.82;17.55;101632.31;5015589;28;20567;-70
2022/03/24 10:43:23;;;;;;;33.67;25.42;;;;;;;32.04;18.29;101626.16;5015920;28;20168;-70
2022/03/24 10:46:14;;;;;;;34.85;25.70;;;;;;;32.76;17.32;101619.50;5015940;28;20460;-70
2022/03/24 10:49:13;;;;;;;31.88;23.50;;;;;;;32.30;17.08;101631.00;5016862;28;20045;-70
2022/03/24 10:52:00;;;;;;;29.13;23.25;;;;;;;30.18;17.72;101616.09;5015639;28;20049;-70
2022/03/24 10:54:48;;;;;;;34.38;24.67;;;;;;;32.39;17.02;101627.53;5015817;28;20056;-69
2022/03/24 10:57:31;;;;;;;33.35;24.45;;;;;;;33.25;16.87;101622.88;5015736;28;20112;-70
2022/03/24 11:00:15;;;;;;;31.40;25.42;;;;;;;34.42;16.06;101612.53;5016589;28;20091;-70
2022/03/24 11:03:00;;;;;;;29.48;23.83;;;;;;;32.82;17.04;101610.19;5015216;28;20084;-69
2022/03/24 11:05:44;;;;;;;32.97;24.13;;;;;;;32.66;17.56;101622.09;5001603;28;20104;-70
2022/03/24 11:08:28;;;;;;;32.25;25.60;;;;;;;32.72;17.29;101612.84;5016771;28;20051;-69
2022/03/24 11:11:13;;;;;;;37.78;26.95;;;;;;;32.88;17.08;101603.66;5016414;28;20397;-70
2022/03/24 11:13:59;;;;;;;31.40;25.38;;;;;;;33.83;17.15;101608.22;5016359;28;20061;-70
2022/03/24 11:16:43;;;;;;;29.60;24.65;;;;;;;33.79;16.35;101605.19;5015421;28;20563;-70
2022/03/24 11:19:27;;;;;;;29.42;25.33;;;;;;;35.02;15.61;101597.03;5001115;28;20183;-70
2022/03/24 11:22:14;;;;;;;28.95;24.95;;;;;;;36.73;14.69;101593.09;5014999;28;20556;-70
2022/03/24 11:24:59;;;;;;;29.52;23.58;;;;;;;37.54;14.64;101594.31;5015280;28;20052;-70
2022/03/24 11:27:44;;;;;;;37.65;25.50;;;;;;;38.29;13.84;101593.63;5015133;28;20115;-70
2022/03/24 11:30:28;;;;;;;31.38;24.70;;;;;;;36.69;14.35;101580.88;5014789;28;20107;-70
2022/03/24 11:33:13;;;;;;;31.52;23.52;;;;;;;36.29;14.37;101587.41;5015180;28;20111;-70
2022/03/24 11:35:57;;;;;;;27.88;24.88;;;;;;;36.46;13.65;101587.88;5015007;28;20068;-70
2022/03/24 11:38:42;;;;;;;28.65;24.77;;;;;;;36.63;13.73;101582.00;5014643;28;20049;-70
2022/03/24 11:41:37;;;;;;;34.35;25.73;;;;;;;37.16;13.43;101576.47;5014773;28;20048;-70
2022/03/24 11:44:24;;;;;;;28.50;25.13;;;;;;;36.59;13.45;101569.81;5015062;28;20076;-70
2022/03/24 11:47:13;;;;;;;33.20;25.02;;;;;;;34.17;15.90;101566.13;5015533;28;20573;-70
2022/03/24 11:50:08;;;;;;;29.50;25.90;;;;;;;36.67;13.90;101556.16;5014753;28;20133;-70
2022/03/24 11:53:08;;;;;;;30.67;25.73;;;;;;;35.71;14.54;101570.53;5000406;28;20414;-70
2022/03/24 11:56:04;;;;;;;31.48;25.63;;;;;;;34.78;15.72;101551.50;5000762;28;20044;-70
2022/03/24 11:58:54;;;;;;;30.65;24.88;;;;;;;35.33;14.83;101548.88;5015236;28;20064;-70
2022/03/24 12:01:38;;;;;;;29.75;25.23;;;;;;;36.31;14.50;101545.44;5015308;28;20169;-70
2022/03/24 12:04:22;;;;;;;27.10;22.15;;;;;;;36.26;14.64;101548.25;5015218;28;20048;-70
2022/03/24 12:07:06;;;;;;;29.33;23.58;;;;;;;34.59;14.66;101539.22;5000763;28;20401;-70
2022/03/24 12:10:11;;;;;;;30.73;24.35;;;;;;;34.70;15.10;101548.44;5014126;28;20508;-70
2022/03/24 12:13:19;;;;;;;23.98;21.48;;;;;;;33.05;15.15;101536.16;5013887;28;20057;-70
2022/03/24 12:16:12;;;;;;;24.48;21.38;;;;;;;33.93;14.55;101530.84;5014284;28;20053;-70
2022/03/24 12:18:57;;;;;;;28.00;23.00;;;;;;;32.70;16.23;101529.38;5014159;28;20052;-70